sensor_id;sensor_type;location;lat;lon;timestamp;P1;durP1;ratioP1;P2;durP2;ratioP2
73359;SDS011;63092;43.582;19.528;2024-03-06T00:01:04;14.43;;;7.50;;
73359;SDS011;63092;43.582;19.528;2024-03-06T00:03:31;11.20;;;6.93;;
73359;SDS011;63092;43.582;19.528;2024-03-06T00:05:57;13.68;;;7.78;;
73359;SDS011;63092;43.582;19.528;2024-03-06T00:08:23;14.45;;;8.38;;
73359;SDS011;63092;43.582;19.528;2024-03-06T00:10:49;16.30;;;8.68;;
73359;SDS011;63092;43.582;19.528;2024-03-06T00:13:14;18.05;;;9.45;;
73359;SDS011;63092;43.582;19.528;2024-03-06T00:15:40;17.05;;;9.80;;
73359;SDS011;63092;43.582;19.528;2024-03-06T00:18:06;16.50;;;9.18;;
73359;SDS011;63092;43.582;19.528;2024-03-06T00:20:32;17.58;;;10.43;;
73359;SDS011;63092;43.582;19.528;2024-03-06T00:22:57;17.63;;;10.70;;
73359;SDS011;63092;43.582;19.528;2024-03-06T00:25:24;17.00;;;9.73;;
73359;SDS011;63092;43.582;19.528;2024-03-06T00:27:50;16.92;;;9.68;;
73359;SDS011;63092;43.582;19.528;2024-03-06T00:30:16;18.95;;;10.18;;
73359;SDS011;63092;43.582;19.528;2024-03-06T00:32:41;15.27;;;9.30;;
73359;SDS011;63092;43.582;19.528;2024-03-06T00:35:07;16.50;;;8.73;;
73359;SDS011;63092;43.582;19.528;2024-03-06T00:37:33;17.20;;;8.73;;
73359;SDS011;63092;43.582;19.528;2024-03-06T00:39:59;13.25;;;9.15;;
73359;SDS011;63092;43.582;19.528;2024-03-06T00:42:25;16.75;;;8.30;;
73359;SDS011;63092;43.582;19.528;2024-03-06T00:44:50;12.70;;;8.15;;
73359;SDS011;63092;43.582;19.528;2024-03-06T00:47:16;15.98;;;8.57;;
73359;SDS011;63092;43.582;19.528;2024-03-06T00:49:42;13.48;;;8.35;;
73359;SDS011;63092;43.582;19.528;2024-03-06T00:52:08;16.20;;;9.65;;
73359;SDS011;63092;43.582;19.528;2024-03-06T00:54:34;16.70;;;9.23;;
73359;SDS011;63092;43.582;19.528;2024-03-06T00:57:00;16.17;;;9.63;;
73359;SDS011;63092;43.582;19.528;2024-03-06T00:59:26;16.50;;;10.38;;
73359;SDS011;63092;43.582;19.528;2024-03-06T01:01:53;19.98;;;9.25;;
73359;SDS011;63092;43.582;19.528;2024-03-06T01:04:21;15.45;;;8.77;;
73359;SDS011;63092;43.582;19.528;2024-03-06T01:06:47;18.00;;;9.40;;
73359;SDS011;63092;43.582;19.528;2024-03-06T01:09:13;20.83;;;11.25;;
73359;SDS011;63092;43.582;19.528;2024-03-06T01:11:39;20.83;;;11.15;;
73359;SDS011;63092;43.582;19.528;2024-03-06T01:14:05;23.58;;;12.23;;
73359;SDS011;63092;43.582;19.528;2024-03-06T01:16:30;20.13;;;11.50;;
73359;SDS011;63092;43.582;19.528;2024-03-06T01:18:56;23.17;;;11.68;;
73359;SDS011;63092;43.582;19.528;2024-03-06T01:21:22;19.63;;;11.75;;
73359;SDS011;63092;43.582;19.528;2024-03-06T01:23:47;18.52;;;11.65;;
73359;SDS011;63092;43.582;19.528;2024-03-06T01:26:13;20.85;;;11.90;;
73359;SDS011;63092;43.582;19.528;2024-03-06T01:28:39;23.00;;;11.38;;
73359;SDS011;63092;43.582;19.528;2024-03-06T01:31:05;20.85;;;11.45;;
73359;SDS011;63092;43.582;19.528;2024-03-06T01:33:31;18.48;;;10.38;;
73359;SDS011;63092;43.582;19.528;2024-03-06T01:35:57;21.02;;;10.27;;
73359;SDS011;63092;43.582;19.528;2024-03-06T01:38:23;22.92;;;12.82;;
73359;SDS011;63092;43.582;19.528;2024-03-06T01:40:48;19.58;;;10.50;;
73359;SDS011;63092;43.582;19.528;2024-03-06T01:43:21;20.65;;;11.65;;
73359;SDS011;63092;43.582;19.528;2024-03-06T01:45:48;20.10;;;11.55;;
73359;SDS011;63092;43.582;19.528;2024-03-06T01:48:15;19.02;;;11.15;;
73359;SDS011;63092;43.582;19.528;2024-03-06T01:50:42;17.00;;;10.05;;
73359;SDS011;63092;43.582;19.528;2024-03-06T01:53:08;17.10;;;10.05;;
73359;SDS011;63092;43.582;19.528;2024-03-06T01:55:35;19.33;;;10.90;;
73359;SDS011;63092;43.582;19.528;2024-03-06T01:58:01;19.38;;;10.98;;
73359;SDS011;63092;43.582;19.528;2024-03-06T02:00:27;20.70;;;11.68;;
73359;SDS011;63092;43.582;19.528;2024-03-06T02:02:53;18.80;;;11.48;;
73359;SDS011;63092;43.582;19.528;2024-03-06T02:05:19;20.48;;;11.27;;
73359;SDS011;63092;43.582;19.528;2024-03-06T02:07:45;22.20;;;12.38;;
73359;SDS011;63092;43.582;19.528;2024-03-06T02:10:12;20.35;;;11.90;;
73359;SDS011;63092;43.582;19.528;2024-03-06T02:12:38;20.95;;;11.80;;
73359;SDS011;63092;43.582;19.528;2024-03-06T02:15:04;16.70;;;10.32;;
73359;SDS011;63092;43.582;19.528;2024-03-06T02:17:31;16.58;;;9.70;;
73359;SDS011;63092;43.582;19.528;2024-03-06T02:19:56;19.30;;;10.10;;
73359;SDS011;63092;43.582;19.528;2024-03-06T02:22:25;20.15;;;10.60;;
73359;SDS011;63092;43.582;19.528;2024-03-06T02:24:51;20.10;;;10.27;;
73359;SDS011;63092;43.582;19.528;2024-03-06T02:27:16;16.75;;;9.63;;
73359;SDS011;63092;43.582;19.528;2024-03-06T02:29:43;18.70;;;10.27;;
73359;SDS011;63092;43.582;19.528;2024-03-06T02:32:08;17.05;;;9.75;;
73359;SDS011;63092;43.582;19.528;2024-03-06T02:34:37;17.95;;;10.35;;
73359;SDS011;63092;43.582;19.528;2024-03-06T02:37:03;17.27;;;9.68;;
73359;SDS011;63092;43.582;19.528;2024-03-06T02:39:28;13.27;;;8.77;;
73359;SDS011;63092;43.582;19.528;2024-03-06T02:41:54;18.00;;;9.82;;
73359;SDS011;63092;43.582;19.528;2024-03-06T02:44:20;17.63;;;10.05;;
73359;SDS011;63092;43.582;19.528;2024-03-06T02:46:46;16.40;;;9.43;;
73359;SDS011;63092;43.582;19.528;2024-03-06T02:49:13;18.30;;;9.95;;
73359;SDS011;63092;43.582;19.528;2024-03-06T02:51:40;16.02;;;9.85;;
73359;SDS011;63092;43.582;19.528;2024-03-06T02:54:05;20.52;;;10.60;;
73359;SDS011;63092;43.582;19.528;2024-03-06T02:56:31;19.70;;;10.57;;
73359;SDS011;63092;43.582;19.528;2024-03-06T02:58:57;19.90;;;10.90;;
73359;SDS011;63092;43.582;19.528;2024-03-06T03:01:23;19.58;;;11.23;;
73359;SDS011;63092;43.582;19.528;2024-03-06T03:03:48;22.95;;;12.25;;
73359;SDS011;63092;43.582;19.528;2024-03-06T03:06:16;20.45;;;11.05;;
73359;SDS011;63092;43.582;19.528;2024-03-06T03:08:42;22.65;;;11.43;;
73359;SDS011;63092;43.582;19.528;2024-03-06T03:11:07;17.38;;;10.57;;
73359;SDS011;63092;43.582;19.528;2024-03-06T03:13:33;21.73;;;11.15;;
73359;SDS011;63092;43.582;19.528;2024-03-06T03:15:59;22.48;;;11.93;;
73359;SDS011;63092;43.582;19.528;2024-03-06T03:18:24;22.55;;;12.18;;
73359;SDS011;63092;43.582;19.528;2024-03-06T03:20:50;20.40;;;12.07;;
73359;SDS011;63092;43.582;19.528;2024-03-06T03:23:16;19.38;;;11.23;;
73359;SDS011;63092;43.582;19.528;2024-03-06T03:25:47;25.55;;;13.15;;
73359;SDS011;63092;43.582;19.528;2024-03-06T03:28:14;22.50;;;12.38;;
73359;SDS011;63092;43.582;19.528;2024-03-06T03:30:40;24.27;;;13.02;;
73359;SDS011;63092;43.582;19.528;2024-03-06T03:33:09;27.98;;;15.00;;
73359;SDS011;63092;43.582;19.528;2024-03-06T03:35:34;29.42;;;15.13;;
73359;SDS011;63092;43.582;19.528;2024-03-06T03:38:00;31.75;;;16.45;;
73359;SDS011;63092;43.582;19.528;2024-03-06T03:40:26;38.67;;;16.60;;
73359;SDS011;63092;43.582;19.528;2024-03-06T03:42:52;32.53;;;16.00;;
73359;SDS011;63092;43.582;19.528;2024-03-06T03:45:17;47.13;;;22.23;;
73359;SDS011;63092;43.582;19.528;2024-03-06T03:47:45;25.05;;;14.43;;
73359;SDS011;63092;43.582;19.528;2024-03-06T03:50:10;29.85;;;15.05;;
73359;SDS011;63092;43.582;19.528;2024-03-06T03:52:37;24.27;;;14.57;;
73359;SDS011;63092;43.582;19.528;2024-03-06T03:55:06;27.08;;;15.52;;
73359;SDS011;63092;43.582;19.528;2024-03-06T03:57:32;20.60;;;11.45;;
73359;SDS011;63092;43.582;19.528;2024-03-06T03:59:58;15.88;;;9.27;;
73359;SDS011;63092;43.582;19.528;2024-03-06T04:02:24;15.13;;;8.23;;
73359;SDS011;63092;43.582;19.528;2024-03-06T04:04:50;12.93;;;7.78;;
73359;SDS011;63092;43.582;19.528;2024-03-06T04:07:16;17.48;;;8.05;;
73359;SDS011;63092;43.582;19.528;2024-03-06T04:09:43;14.85;;;8.32;;
73359;SDS011;63092;43.582;19.528;2024-03-06T04:12:09;13.90;;;7.57;;
73359;SDS011;63092;43.582;19.528;2024-03-06T04:14:35;17.50;;;9.00;;
73359;SDS011;63092;43.582;19.528;2024-03-06T04:17:01;16.15;;;8.73;;
73359;SDS011;63092;43.582;19.528;2024-03-06T04:19:28;16.10;;;8.57;;
73359;SDS011;63092;43.582;19.528;2024-03-06T04:21:54;12.65;;;7.53;;
73359;SDS011;63092;43.582;19.528;2024-03-06T04:24:20;13.95;;;7.80;;
73359;SDS011;63092;43.582;19.528;2024-03-06T04:26:46;12.85;;;7.35;;
73359;SDS011;63092;43.582;19.528;2024-03-06T04:29:11;18.45;;;10.13;;
73359;SDS011;63092;43.582;19.528;2024-03-06T04:31:38;19.65;;;11.88;;
73359;SDS011;63092;43.582;19.528;2024-03-06T04:34:04;17.90;;;9.82;;
73359;SDS011;63092;43.582;19.528;2024-03-06T04:36:30;19.92;;;11.32;;
73359;SDS011;63092;43.582;19.528;2024-03-06T04:38:56;15.35;;;8.63;;
73359;SDS011;63092;43.582;19.528;2024-03-06T04:41:21;16.65;;;9.77;;
73359;SDS011;63092;43.582;19.528;2024-03-06T04:43:48;12.63;;;8.45;;
73359;SDS011;63092;43.582;19.528;2024-03-06T04:46:16;14.52;;;7.68;;
73359;SDS011;63092;43.582;19.528;2024-03-06T04:48:41;16.10;;;8.60;;
73359;SDS011;63092;43.582;19.528;2024-03-06T04:51:07;15.75;;;9.00;;
73359;SDS011;63092;43.582;19.528;2024-03-06T04:53:35;15.75;;;9.43;;
73359;SDS011;63092;43.582;19.528;2024-03-06T04:56:01;16.95;;;9.25;;
73359;SDS011;63092;43.582;19.528;2024-03-06T04:58:27;19.33;;;10.05;;
73359;SDS011;63092;43.582;19.528;2024-03-06T05:00:52;14.57;;;9.00;;
73359;SDS011;63092;43.582;19.528;2024-03-06T05:03:18;12.23;;;8.38;;
73359;SDS011;63092;43.582;19.528;2024-03-06T05:05:44;16.48;;;11.20;;
73359;SDS011;63092;43.582;19.528;2024-03-06T05:08:09;21.27;;;11.95;;
73359;SDS011;63092;43.582;19.528;2024-03-06T05:10:35;19.45;;;9.75;;
73359;SDS011;63092;43.582;19.528;2024-03-06T05:13:01;14.75;;;9.45;;
73359;SDS011;63092;43.582;19.528;2024-03-06T05:15:27;15.68;;;11.23;;
73359;SDS011;63092;43.582;19.528;2024-03-06T05:17:53;15.60;;;9.68;;
73359;SDS011;63092;43.582;19.528;2024-03-06T05:20:21;19.17;;;10.32;;
73359;SDS011;63092;43.582;19.528;2024-03-06T05:22:46;16.95;;;9.85;;
73359;SDS011;63092;43.582;19.528;2024-03-06T05:25:12;18.38;;;9.57;;
73359;SDS011;63092;43.582;19.528;2024-03-06T05:27:38;17.20;;;10.63;;
73359;SDS011;63092;43.582;19.528;2024-03-06T05:30:04;24.30;;;15.77;;
73359;SDS011;63092;43.582;19.528;2024-03-06T05:32:33;28.38;;;15.05;;
73359;SDS011;63092;43.582;19.528;2024-03-06T05:34:59;24.33;;;13.50;;
73359;SDS011;63092;43.582;19.528;2024-03-06T05:37:25;26.80;;;15.40;;
73359;SDS011;63092;43.582;19.528;2024-03-06T05:39:50;27.70;;;15.35;;
73359;SDS011;63092;43.582;19.528;2024-03-06T05:42:17;22.70;;;14.50;;
73359;SDS011;63092;43.582;19.528;2024-03-06T05:44:42;21.25;;;13.30;;
73359;SDS011;63092;43.582;19.528;2024-03-06T05:47:08;19.45;;;11.80;;
73359;SDS011;63092;43.582;19.528;2024-03-06T05:49:34;24.60;;;12.73;;
73359;SDS011;63092;43.582;19.528;2024-03-06T05:52:00;22.75;;;11.90;;
73359;SDS011;63092;43.582;19.528;2024-03-06T05:54:25;20.80;;;11.05;;
73359;SDS011;63092;43.582;19.528;2024-03-06T05:56:52;25.20;;;12.40;;
73359;SDS011;63092;43.582;19.528;2024-03-06T05:59:18;23.02;;;12.02;;
73359;SDS011;63092;43.582;19.528;2024-03-06T06:01:44;22.13;;;10.95;;
73359;SDS011;63092;43.582;19.528;2024-03-06T06:04:11;28.42;;;13.43;;
73359;SDS011;63092;43.582;19.528;2024-03-06T06:06:38;34.65;;;20.48;;
73359;SDS011;63092;43.582;19.528;2024-03-06T06:09:04;27.48;;;16.33;;
73359;SDS011;63092;43.582;19.528;2024-03-06T06:11:31;29.63;;;14.38;;
73359;SDS011;63092;43.582;19.528;2024-03-06T06:13:58;23.85;;;12.48;;
73359;SDS011;63092;43.582;19.528;2024-03-06T06:16:24;22.55;;;12.48;;
73359;SDS011;63092;43.582;19.528;2024-03-06T06:18:49;20.67;;;11.55;;
73359;SDS011;63092;43.582;19.528;2024-03-06T06:21:15;23.23;;;12.55;;
73359;SDS011;63092;43.582;19.528;2024-03-06T06:23:41;24.20;;;13.27;;
73359;SDS011;63092;43.582;19.528;2024-03-06T06:26:08;25.75;;;13.15;;
73359;SDS011;63092;43.582;19.528;2024-03-06T06:28:35;25.70;;;13.82;;
73359;SDS011;63092;43.582;19.528;2024-03-06T06:31:02;52.97;;;26.85;;
73359;SDS011;63092;43.582;19.528;2024-03-06T06:33:29;72.38;;;32.58;;
73359;SDS011;63092;43.582;19.528;2024-03-06T06:35:55;55.40;;;27.00;;
73359;SDS011;63092;43.582;19.528;2024-03-06T06:38:21;35.40;;;19.13;;
73359;SDS011;63092;43.582;19.528;2024-03-06T06:40:47;28.15;;;16.50;;
73359;SDS011;63092;43.582;19.528;2024-03-06T06:43:13;24.08;;;14.85;;
73359;SDS011;63092;43.582;19.528;2024-03-06T06:45:40;26.27;;;16.02;;
73359;SDS011;63092;43.582;19.528;2024-03-06T06:48:06;24.90;;;13.70;;
73359;SDS011;63092;43.582;19.528;2024-03-06T06:50:34;24.88;;;13.98;;
73359;SDS011;63092;43.582;19.528;2024-03-06T06:52:59;24.15;;;13.20;;
73359;SDS011;63092;43.582;19.528;2024-03-06T06:55:26;27.63;;;15.55;;
73359;SDS011;63092;43.582;19.528;2024-03-06T06:57:52;28.75;;;16.17;;
73359;SDS011;63092;43.582;19.528;2024-03-06T07:00:17;44.20;;;22.02;;
73359;SDS011;63092;43.582;19.528;2024-03-06T07:02:44;28.38;;;15.73;;
73359;SDS011;63092;43.582;19.528;2024-03-06T07:05:10;26.88;;;16.00;;
73359;SDS011;63092;43.582;19.528;2024-03-06T07:07:36;31.00;;;19.38;;
73359;SDS011;63092;43.582;19.528;2024-03-06T07:10:03;25.52;;;14.00;;
73359;SDS011;63092;43.582;19.528;2024-03-06T07:12:29;22.58;;;13.30;;
73359;SDS011;63092;43.582;19.528;2024-03-06T07:14:55;21.50;;;12.20;;
73359;SDS011;63092;43.582;19.528;2024-03-06T07:17:21;20.80;;;12.95;;
73359;SDS011;63092;43.582;19.528;2024-03-06T07:19:47;22.08;;;11.60;;
73359;SDS011;63092;43.582;19.528;2024-03-06T07:22:13;19.83;;;11.68;;
73359;SDS011;63092;43.582;19.528;2024-03-06T07:24:39;27.65;;;16.98;;
73359;SDS011;63092;43.582;19.528;2024-03-06T07:27:06;19.70;;;10.95;;
73359;SDS011;63092;43.582;19.528;2024-03-06T07:29:34;17.55;;;11.00;;
73359;SDS011;63092;43.582;19.528;2024-03-06T07:32:00;22.92;;;12.15;;
73359;SDS011;63092;43.582;19.528;2024-03-06T07:34:26;23.10;;;12.38;;
73359;SDS011;63092;43.582;19.528;2024-03-06T07:36:52;18.42;;;10.05;;
73359;SDS011;63092;43.582;19.528;2024-03-06T07:39:21;24.83;;;15.23;;
73359;SDS011;63092;43.582;19.528;2024-03-06T07:41:47;31.07;;;21.77;;
73359;SDS011;63092;43.582;19.528;2024-03-06T07:44:13;13.70;;;9.63;;
73359;SDS011;63092;43.582;19.528;2024-03-06T07:46:39;18.65;;;9.48;;
73359;SDS011;63092;43.582;19.528;2024-03-06T07:49:04;17.38;;;10.70;;
73359;SDS011;63092;43.582;19.528;2024-03-06T07:51:33;14.90;;;9.05;;
73359;SDS011;63092;43.582;19.528;2024-03-06T07:53:59;17.05;;;10.43;;
73359;SDS011;63092;43.582;19.528;2024-03-06T07:56:25;19.83;;;10.57;;
73359;SDS011;63092;43.582;19.528;2024-03-06T07:58:52;18.95;;;11.40;;
73359;SDS011;63092;43.582;19.528;2024-03-06T08:01:18;16.13;;;8.90;;
73359;SDS011;63092;43.582;19.528;2024-03-06T08:03:44;14.82;;;8.98;;
73359;SDS011;63092;43.582;19.528;2024-03-06T08:06:10;15.30;;;9.90;;
73359;SDS011;63092;43.582;19.528;2024-03-06T08:08:36;17.27;;;9.95;;
73359;SDS011;63092;43.582;19.528;2024-03-06T08:11:05;25.27;;;13.75;;
73359;SDS011;63092;43.582;19.528;2024-03-06T08:13:30;18.70;;;9.65;;
73359;SDS011;63092;43.582;19.528;2024-03-06T08:15:56;25.88;;;11.80;;
73359;SDS011;63092;43.582;19.528;2024-03-06T08:18:22;21.10;;;11.00;;
73359;SDS011;63092;43.582;19.528;2024-03-06T08:20:48;21.60;;;11.30;;
73359;SDS011;63092;43.582;19.528;2024-03-06T08:23:13;21.77;;;11.65;;
73359;SDS011;63092;43.582;19.528;2024-03-06T08:25:39;19.27;;;10.70;;
73359;SDS011;63092;43.582;19.528;2024-03-06T08:28:05;18.27;;;10.60;;
73359;SDS011;63092;43.582;19.528;2024-03-06T08:30:31;23.50;;;13.40;;
73359;SDS011;63092;43.582;19.528;2024-03-06T08:32:57;21.88;;;12.82;;
73359;SDS011;63092;43.582;19.528;2024-03-06T08:35:23;24.83;;;14.48;;
73359;SDS011;63092;43.582;19.528;2024-03-06T08:37:49;23.67;;;13.85;;
73359;SDS011;63092;43.582;19.528;2024-03-06T08:40:16;22.73;;;14.15;;
73359;SDS011;63092;43.582;19.528;2024-03-06T08:42:46;17.48;;;11.02;;
73359;SDS011;63092;43.582;19.528;2024-03-06T08:45:12;26.15;;;13.30;;
73359;SDS011;63092;43.582;19.528;2024-03-06T08:47:41;28.20;;;16.08;;
73359;SDS011;63092;43.582;19.528;2024-03-06T08:50:09;22.70;;;13.07;;
73359;SDS011;63092;43.582;19.528;2024-03-06T08:52:35;21.40;;;11.68;;
73359;SDS011;63092;43.582;19.528;2024-03-06T08:55:02;16.88;;;10.63;;
73359;SDS011;63092;43.582;19.528;2024-03-06T08:57:31;17.55;;;10.77;;
73359;SDS011;63092;43.582;19.528;2024-03-06T09:00:00;18.73;;;10.63;;
73359;SDS011;63092;43.582;19.528;2024-03-06T09:02:27;17.08;;;10.00;;
73359;SDS011;63092;43.582;19.528;2024-03-06T09:04:53;16.13;;;9.35;;
73359;SDS011;63092;43.582;19.528;2024-03-06T09:07:19;15.73;;;9.30;;
73359;SDS011;63092;43.582;19.528;2024-03-06T09:12:14;12.98;;;7.55;;
73359;SDS011;63092;43.582;19.528;2024-03-06T09:14:40;15.18;;;8.95;;
73359;SDS011;63092;43.582;19.528;2024-03-06T09:17:10;13.35;;;7.65;;
73359;SDS011;63092;43.582;19.528;2024-03-06T09:19:39;13.98;;;7.63;;
73359;SDS011;63092;43.582;19.528;2024-03-06T09:22:05;15.68;;;9.73;;
73359;SDS011;63092;43.582;19.528;2024-03-06T09:24:32;17.25;;;9.90;;
73359;SDS011;63092;43.582;19.528;2024-03-06T09:27:00;16.08;;;8.27;;
73359;SDS011;63092;43.582;19.528;2024-03-06T09:29:26;15.15;;;8.10;;
73359;SDS011;63092;43.582;19.528;2024-03-06T09:31:52;12.60;;;8.00;;
73359;SDS011;63092;43.582;19.528;2024-03-06T09:34:17;16.35;;;8.23;;
73359;SDS011;63092;43.582;19.528;2024-03-06T09:36:46;13.13;;;7.50;;
73359;SDS011;63092;43.582;19.528;2024-03-06T09:39:14;12.77;;;7.00;;
73359;SDS011;63092;43.582;19.528;2024-03-06T09:41:51;14.48;;;8.27;;
73359;SDS011;63092;43.582;19.528;2024-03-06T09:44:21;17.67;;;10.48;;
73359;SDS011;63092;43.582;19.528;2024-03-06T09:46:48;18.63;;;10.18;;
73359;SDS011;63092;43.582;19.528;2024-03-06T09:49:15;18.75;;;10.48;;
73359;SDS011;63092;43.582;19.528;2024-03-06T09:51:42;16.45;;;9.95;;
73359;SDS011;63092;43.582;19.528;2024-03-06T09:54:12;16.25;;;9.13;;
73359;SDS011;63092;43.582;19.528;2024-03-06T09:56:42;14.75;;;7.95;;
73359;SDS011;63092;43.582;19.528;2024-03-06T09:59:09;15.10;;;8.90;;
73359;SDS011;63092;43.582;19.528;2024-03-06T10:01:36;14.32;;;7.78;;
73359;SDS011;63092;43.582;19.528;2024-03-06T10:04:24;14.60;;;7.78;;
73359;SDS011;63092;43.582;19.528;2024-03-06T10:06:55;14.18;;;8.00;;
73359;SDS011;63092;43.582;19.528;2024-03-06T10:09:24;15.20;;;8.70;;
73359;SDS011;63092;43.582;19.528;2024-03-06T10:11:51;16.20;;;8.50;;
73359;SDS011;63092;43.582;19.528;2024-03-06T10:14:22;15.07;;;7.65;;
73359;SDS011;63092;43.582;19.528;2024-03-06T10:16:54;19.13;;;9.38;;
73359;SDS011;63092;43.582;19.528;2024-03-06T10:19:21;16.90;;;9.18;;
73359;SDS011;63092;43.582;19.528;2024-03-06T10:21:48;13.50;;;7.35;;
73359;SDS011;63092;43.582;19.528;2024-03-06T10:24:26;14.98;;;8.90;;
73359;SDS011;63092;43.582;19.528;2024-03-06T10:26:54;14.43;;;7.50;;
73359;SDS011;63092;43.582;19.528;2024-03-06T10:29:24;16.05;;;9.00;;
73359;SDS011;63092;43.582;19.528;2024-03-06T10:31:56;14.32;;;8.82;;
73359;SDS011;63092;43.582;19.528;2024-03-06T10:34:26;18.13;;;9.20;;
73359;SDS011;63092;43.582;19.528;2024-03-06T10:36:57;16.52;;;9.15;;
73359;SDS011;63092;43.582;19.528;2024-03-06T10:39:24;17.30;;;8.43;;
73359;SDS011;63092;43.582;19.528;2024-03-06T10:41:51;10.38;;;7.03;;
73359;SDS011;63092;43.582;19.528;2024-03-06T10:44:22;16.48;;;8.60;;
73359;SDS011;63092;43.582;19.528;2024-03-06T10:46:58;33.03;;;15.48;;
73359;SDS011;63092;43.582;19.528;2024-03-06T10:49:28;33.53;;;15.60;;
73359;SDS011;63092;43.582;19.528;2024-03-06T10:51:59;25.42;;;13.65;;
73359;SDS011;63092;43.582;19.528;2024-03-06T10:54:29;14.75;;;8.65;;
73359;SDS011;63092;43.582;19.528;2024-03-06T10:56:56;15.52;;;8.77;;
73359;SDS011;63092;43.582;19.528;2024-03-06T10:59:24;14.27;;;8.38;;
73359;SDS011;63092;43.582;19.528;2024-03-06T11:01:59;21.80;;;12.55;;
73359;SDS011;63092;43.582;19.528;2024-03-06T11:04:31;23.92;;;13.02;;
73359;SDS011;63092;43.582;19.528;2024-03-06T11:07:00;20.02;;;10.38;;
73359;SDS011;63092;43.582;19.528;2024-03-06T11:09:28;33.53;;;14.32;;
73359;SDS011;63092;43.582;19.528;2024-03-06T11:11:57;38.35;;;16.85;;
73359;SDS011;63092;43.582;19.528;2024-03-06T11:14:23;15.77;;;8.75;;
73359;SDS011;63092;43.582;19.528;2024-03-06T11:16:56;16.50;;;8.98;;
73359;SDS011;63092;43.582;19.528;2024-03-06T11:19:23;23.58;;;11.35;;
73359;SDS011;63092;43.582;19.528;2024-03-06T11:21:48;37.45;;;16.70;;
73359;SDS011;63092;43.582;19.528;2024-03-06T11:24:15;42.63;;;18.10;;
73359;SDS011;63092;43.582;19.528;2024-03-06T11:29:17;22.23;;;10.43;;
73359;SDS011;63092;43.582;19.528;2024-03-06T11:31:59;16.10;;;9.38;;
73359;SDS011;63092;43.582;19.528;2024-03-06T11:34:26;15.77;;;8.75;;
73359;SDS011;63092;43.582;19.528;2024-03-06T11:36:58;16.55;;;9.50;;
73359;SDS011;63092;43.582;19.528;2024-03-06T11:39:28;18.13;;;9.73;;
73359;SDS011;63092;43.582;19.528;2024-03-06T11:41:55;15.95;;;7.70;;
73359;SDS011;63092;43.582;19.528;2024-03-06T11:44:22;21.58;;;10.93;;
73359;SDS011;63092;43.582;19.528;2024-03-06T11:46:50;18.45;;;9.18;;
73359;SDS011;63092;43.582;19.528;2024-03-06T11:49:29;17.48;;;8.73;;
73359;SDS011;63092;43.582;19.528;2024-03-06T11:52:00;16.65;;;8.02;;
73359;SDS011;63092;43.582;19.528;2024-03-06T11:54:36;14.48;;;7.43;;
73359;SDS011;63092;43.582;19.528;2024-03-06T11:57:03;13.73;;;8.40;;
73359;SDS011;63092;43.582;19.528;2024-03-06T11:59:31;16.55;;;9.13;;
73359;SDS011;63092;43.582;19.528;2024-03-06T12:02:01;13.57;;;7.45;;
73359;SDS011;63092;43.582;19.528;2024-03-06T12:04:35;27.13;;;13.33;;
73359;SDS011;63092;43.582;19.528;2024-03-06T12:07:04;14.63;;;10.05;;
73359;SDS011;63092;43.582;19.528;2024-03-06T12:09:31;12.57;;;9.30;;
73359;SDS011;63092;43.582;19.528;2024-03-06T12:11:58;17.83;;;11.02;;
73359;SDS011;63092;43.582;19.528;2024-03-06T12:14:24;18.30;;;8.13;;
73359;SDS011;63092;43.582;19.528;2024-03-06T12:17:00;15.07;;;9.10;;
73359;SDS011;63092;43.582;19.528;2024-03-06T12:19:33;10.10;;;6.22;;
73359;SDS011;63092;43.582;19.528;2024-03-06T12:22:02;14.88;;;7.32;;
73359;SDS011;63092;43.582;19.528;2024-03-06T12:24:29;11.52;;;6.10;;
73359;SDS011;63092;43.582;19.528;2024-03-06T12:27:05;12.82;;;7.07;;
73359;SDS011;63092;43.582;19.528;2024-03-06T12:29:32;18.90;;;8.85;;
73359;SDS011;63092;43.582;19.528;2024-03-06T12:32:00;13.57;;;7.78;;
73359;SDS011;63092;43.582;19.528;2024-03-06T12:34:26;18.02;;;8.27;;
73359;SDS011;63092;43.582;19.528;2024-03-06T12:36:52;13.23;;;8.02;;
73359;SDS011;63092;43.582;19.528;2024-03-06T12:39:18;23.45;;;13.73;;
73359;SDS011;63092;43.582;19.528;2024-03-06T12:41:48;27.15;;;13.20;;
73359;SDS011;63092;43.582;19.528;2024-03-06T12:44:14;12.95;;;5.25;;
73359;SDS011;63092;43.582;19.528;2024-03-06T12:46:40;17.15;;;8.07;;
73359;SDS011;63092;43.582;19.528;2024-03-06T12:49:06;15.68;;;7.63;;
73359;SDS011;63092;43.582;19.528;2024-03-06T12:51:32;10.65;;;6.70;;
73359;SDS011;63092;43.582;19.528;2024-03-06T12:53:58;14.13;;;6.32;;
73359;SDS011;63092;43.582;19.528;2024-03-06T12:56:24;16.55;;;6.82;;
73359;SDS011;63092;43.582;19.528;2024-03-06T12:58:52;10.48;;;6.47;;
73359;SDS011;63092;43.582;19.528;2024-03-06T13:01:18;13.75;;;6.97;;
73359;SDS011;63092;43.582;19.528;2024-03-06T13:03:45;14.07;;;6.30;;
73359;SDS011;63092;43.582;19.528;2024-03-06T13:06:10;16.95;;;6.63;;
73359;SDS011;63092;43.582;19.528;2024-03-06T13:08:36;12.13;;;5.45;;
73359;SDS011;63092;43.582;19.528;2024-03-06T13:11:02;12.60;;;5.85;;
73359;SDS011;63092;43.582;19.528;2024-03-06T13:13:28;17.73;;;7.05;;
73359;SDS011;63092;43.582;19.528;2024-03-06T13:15:55;12.63;;;6.43;;
73359;SDS011;63092;43.582;19.528;2024-03-06T13:18:21;14.50;;;6.63;;
73359;SDS011;63092;43.582;19.528;2024-03-06T13:20:47;13.57;;;6.13;;
73359;SDS011;63092;43.582;19.528;2024-03-06T13:23:14;13.88;;;7.05;;
73359;SDS011;63092;43.582;19.528;2024-03-06T13:25:39;14.63;;;7.00;;
73359;SDS011;63092;43.582;19.528;2024-03-06T13:28:05;12.93;;;6.30;;
73359;SDS011;63092;43.582;19.528;2024-03-06T13:30:31;12.80;;;5.78;;
73359;SDS011;63092;43.582;19.528;2024-03-06T13:32:57;14.60;;;6.57;;
73359;SDS011;63092;43.582;19.528;2024-03-06T13:35:23;12.43;;;5.82;;
73359;SDS011;63092;43.582;19.528;2024-03-06T13:37:49;15.13;;;7.30;;
73359;SDS011;63092;43.582;19.528;2024-03-06T13:40:15;11.25;;;5.32;;
73359;SDS011;63092;43.582;19.528;2024-03-06T13:42:41;13.27;;;5.80;;
73359;SDS011;63092;43.582;19.528;2024-03-06T13:45:07;16.65;;;5.75;;
73359;SDS011;63092;43.582;19.528;2024-03-06T13:47:43;18.30;;;6.18;;
73359;SDS011;63092;43.582;19.528;2024-03-06T13:50:13;8.93;;;5.72;;
73359;SDS011;63092;43.582;19.528;2024-03-06T13:52:40;13.70;;;5.78;;
73359;SDS011;63092;43.582;19.528;2024-03-06T13:55:06;12.85;;;6.43;;
73359;SDS011;63092;43.582;19.528;2024-03-06T13:57:33;12.75;;;6.13;;
73359;SDS011;63092;43.582;19.528;2024-03-06T14:00:03;14.13;;;7.40;;
73359;SDS011;63092;43.582;19.528;2024-03-06T14:02:31;18.10;;;8.57;;
73359;SDS011;63092;43.582;19.528;2024-03-06T14:04:57;16.30;;;7.55;;
73359;SDS011;63092;43.582;19.528;2024-03-06T14:07:23;18.88;;;9.68;;
73359;SDS011;63092;43.582;19.528;2024-03-06T14:09:51;18.90;;;10.30;;
73359;SDS011;63092;43.582;19.528;2024-03-06T14:12:17;19.40;;;10.77;;
73359;SDS011;63092;43.582;19.528;2024-03-06T14:14:43;18.67;;;10.90;;
73359;SDS011;63092;43.582;19.528;2024-03-06T14:17:12;20.00;;;11.20;;
73359;SDS011;63092;43.582;19.528;2024-03-06T14:19:38;22.40;;;11.05;;